Terminal Aerodrome Forecast
Issued by NWS Topeka, KS

Home | Current Version | Previous Version | Text Only | Print | Product List | Glossary Off
Versions: 1 2 3 4 5 6 7 8 9 10 11 12 13 14 15 16

000
FTUS43 KTOP 160900 AAA
TAFTOP
TAF AMD
KTOP 160909Z 1609/1706 17013KT P6SM BKN200 WS004/18055KT
     FM161300 19021G31KT P6SM BKN200
     FM170200 35013G18KT P6SM BKN080=

USA.gov is the U.S. government's official web portal to all federal, state and local government web resources and services.